Relevés horaires Adelboden (Suisse)


Relevés horaires à Adelboden - Mercredi 12 Sept. 2007
Heure UTC1 Température [°C] Vent [km/h] Hum. [%] Pres.4 [hPa] Visi. [Km] Nébu. [octa] Préc.5 [mm] Cond.
2m. Res. Ros. Dir.2 Vit. Moy. Raf.3
23:00 7.2 7.2 4.5 NNO 0.0 1.9 5.6 83 850(0.3/3h) -- -- -- --
22:00 7.5 7.5 4.6 NNO 0.0 1.9 3.7 82 850(-0.2/3h) -- -- -- --
21:00 8.2 8.2 5.0 NNO 0.0 13.0 20.4 80 850(-0.1/3h) -- -- -- --
20:00 7.9 7.9 5.8 NNO 0.0 3.7 7.4 87 850(0.3/3h) -- -- -- --
19:00 9.0 9.0 6.4 OSO 1.9 3.7 7.4 84 850(0.6/3h) -- -- -- --
18:00 10.0 10.0 7.1 OSO 3.7 13.0 22.2 82 850(0.6/3h) 30 1/8 0/0h
--
17:00 10.7 10.7 7.9 E 1.9 13.0 20.4 83 850(0.4/3h) -- -- -- --
16:00 13.3 13 7.4 ENE 7.4 13.0 22.2 67 850(0.2/3h) -- -- -- --
15:00 14.1 13.4 5.2 ENE 11.1 13.0 22.2 55 850(0.0/3h) -- -- -- --
14:00 14.6 14.5 5.2 E 7.4 13.0 20.4 53 850(0.4/3h) -- -- -- --
13:00 14.3 14.2 3.8 E 7.4 13.0 20.4 49 850(0.3/3h) -- -- -- --
12:00 13.3 12.2 3.3 ENE 13.0 13.0 20.4 51 850(0.3/3h) 45 5/8 0/0h
--
11:00 12.9 12.2 3.9 ENE 9.3 11.1 18.5 54 850(0.7/3h) -- -- -- --
10:00 11.7 11.5 4.8 ESE 5.6 7.4 14.8 63 850(1.1/3h) -- -- -- --
09:00 10.4 10 6.8 E 5.6 5.6 11.1 78 850(1.2/3h) -- -- -- --
08:00 7.7 7.7 3.1 SSE 3.7 3.7 7.4 73 850(0.7/3h) -- -- -- --
07:00 4.8 4.8 0.3 S 3.7 3.7 7.4 73 850(0.4/3h) -- -- -- --
06:00 2.7 2.7 1.0 NNO 0.0 -- -- 89 850(0.2/3h) 50 2/8 -- --
05:00 3.2 3.2 1.4 NNO 0.0 0.0 0.0 88 850(-0.4/3h) -- -- -- --
04:00 2.8 2.8 1.6 NNO 0.0 0.0 1.9 92 850(-0.5/3h) -- -- -- --
03:00 3.7 3.7 2.0 NNO 0.0 3.7 5.6 89 850(-0.7/3h) -- -- -- --
02:00 3.8 3.8 2.4 NNO 0.0 1.9 5.6 91 850(-0.5/3h) -- -- -- --
01:00 4.7 4.7 3.4 NNO 0.0 1.9 5.6 91 850(-0.5/3h) -- -- -- --
00:00 5.6 5.6 4.4 NNO 0.0 -- -- 92 850(-0.3/3h) -- -- -- --

1 Coordinated Universal Time. Actuellement il est 22:00 locale et 20:00 UTC.

2 Le vent souffle depuis la direction indiquée vers la direction oposée.

3 Les rafales max. sont disponible 40 min après l'heure du relevé.

4 Pour les stations d'altitude (plus de 600m) le géopotentiel du niveau le plus proche de la pression obligatoire est indiqué.

5 Les stations disposant d'un diffuseur peuvent indiquer "trace". Cela signifie que des précipitations ont touchés le sol mais que la quantité est inférieure à 0.1 mm.

Copyright

Les données affichées sur cette page sont la propriété exclusive de Météo Suisse.

Récapitulatif de la journée
Température [°C] Vent [km/h] Ensoleillement4 [h] Precipitations totale5 [mm] Pression [Hpa]
Min1 Max.2 Moy.3 Max. Min Max.
-- 15.0 7 22.2 9 h 24 min 0 850.0 850.0

1 Température minimale relevée entre 18:00 UTC la veille et 18:00 UTC le jour donné.

2 Température maximale relevée entre 06:00 UTC le jour donné et 06:00 UTC le lendemain.

3 Vent moyen de la journée basé sur les relevés horaires.

4 Ensoleillement en heures relevé entre 06:00 UTC la veille et 06:00 UTC le jour donné.

5 Précipitations totales tombées entre 06:00 UTC la jour donné et 06:00 UTC le lendemain.

Graphiques horaires